Aasleagh, Ireland
Current Conditions -  °F | °C
As of 6:00 AM on Sunday 26 Oct 2014 (Local Time) from EIKN Reporting Station
Broken Clouds Broken Clouds  
Wind Chill: 50°   Ceiling: 2700
Heat Index: 50°   Visibility: 6mi
Dew Point: 46°   Wind: 18mph
Humidity: 87%   Direction: 210°SSW
Pressure: 29.74"   Gusts: 30mph
Location:  53.5°N, 9.67°W
Report Text: EIKN 260600Z 21016G26KT 9999 FEW008 BKN027 BKN050 10/08 Q1007 TEMPO 5000 BKN010
Loading
Personal Weather Stations






























Interactive Weather Map
Tropical Storm Tracking
New forecast layout! Learn more

10-Day Weather Forecast

Advertisements
Track Severe Weather on mobile